sensor_id;sensor_type;location;lat;lon;timestamp;P1;durP1;ratioP1;P2;durP2;ratioP2
67108;SDS011;54027;50.786;7.058;2023-03-12T00:01:26;10.05;;;5.60;;
67108;SDS011;54027;50.786;7.058;2023-03-12T00:03:54;11.82;;;6.22;;
67108;SDS011;54027;50.786;7.058;2023-03-12T00:06:19;9.88;;;5.65;;
67108;SDS011;54027;50.786;7.058;2023-03-12T00:08:45;14.77;;;6.68;;
67108;SDS011;54027;50.786;7.058;2023-03-12T00:11:12;13.52;;;6.18;;
67108;SDS011;54027;50.786;7.058;2023-03-12T00:13:40;9.90;;;6.00;;
67108;SDS011;54027;50.786;7.058;2023-03-12T00:16:06;13.35;;;5.78;;
67108;SDS011;54027;50.786;7.058;2023-03-12T00:18:37;11.60;;;5.97;;
67108;SDS011;54027;50.786;7.058;2023-03-12T00:21:02;9.73;;;6.45;;
67108;SDS011;54027;50.786;7.058;2023-03-12T00:23:28;10.88;;;5.85;;
67108;SDS011;54027;50.786;7.058;2023-03-12T00:25:58;9.90;;;6.30;;
67108;SDS011;54027;50.786;7.058;2023-03-12T00:28:24;14.43;;;6.13;;
67108;SDS011;54027;50.786;7.058;2023-03-12T00:30:49;9.30;;;6.13;;
67108;SDS011;54027;50.786;7.058;2023-03-12T00:33:17;10.82;;;6.00;;
67108;SDS011;54027;50.786;7.058;2023-03-12T00:35:43;11.60;;;5.30;;
67108;SDS011;54027;50.786;7.058;2023-03-12T00:38:08;11.43;;;5.43;;
67108;SDS011;54027;50.786;7.058;2023-03-12T00:40:33;10.68;;;5.78;;
67108;SDS011;54027;50.786;7.058;2023-03-12T00:42:59;10.48;;;4.82;;
67108;SDS011;54027;50.786;7.058;2023-03-12T00:45:24;11.27;;;4.85;;
67108;SDS011;54027;50.786;7.058;2023-03-12T00:47:49;9.30;;;4.32;;
67108;SDS011;54027;50.786;7.058;2023-03-12T00:50:15;10.20;;;4.10;;
67108;SDS011;54027;50.786;7.058;2023-03-12T00:52:40;10.30;;;3.75;;
67108;SDS011;54027;50.786;7.058;2023-03-12T00:55:06;7.35;;;4.05;;
67108;SDS011;54027;50.786;7.058;2023-03-12T00:57:31;5.60;;;3.58;;
67108;SDS011;54027;50.786;7.058;2023-03-12T00:59:57;5.40;;;3.63;;
67108;SDS011;54027;50.786;7.058;2023-03-12T01:02:22;9.68;;;4.70;;
67108;SDS011;54027;50.786;7.058;2023-03-12T01:04:47;9.63;;;3.72;;
67108;SDS011;54027;50.786;7.058;2023-03-12T01:07:13;7.15;;;3.97;;
67108;SDS011;54027;50.786;7.058;2023-03-12T01:09:38;8.52;;;5.13;;
67108;SDS011;54027;50.786;7.058;2023-03-12T01:12:04;12.75;;;3.47;;
67108;SDS011;54027;50.786;7.058;2023-03-12T01:14:29;6.72;;;3.55;;
67108;SDS011;54027;50.786;7.058;2023-03-12T01:16:55;10.77;;;3.65;;
67108;SDS011;54027;50.786;7.058;2023-03-12T01:19:20;8.93;;;3.92;;
67108;SDS011;54027;50.786;7.058;2023-03-12T01:21:46;5.10;;;3.20;;
67108;SDS011;54027;50.786;7.058;2023-03-12T01:24:11;6.85;;;3.80;;
67108;SDS011;54027;50.786;7.058;2023-03-12T01:26:37;13.15;;;4.15;;
67108;SDS011;54027;50.786;7.058;2023-03-12T01:29:02;6.80;;;3.92;;
67108;SDS011;54027;50.786;7.058;2023-03-12T01:31:27;8.23;;;3.83;;
67108;SDS011;54027;50.786;7.058;2023-03-12T01:33:53;6.63;;;3.40;;
67108;SDS011;54027;50.786;7.058;2023-03-12T01:36:20;7.88;;;3.95;;
67108;SDS011;54027;50.786;7.058;2023-03-12T01:38:51;9.13;;;4.43;;
67108;SDS011;54027;50.786;7.058;2023-03-12T01:41:18;8.23;;;3.97;;
67108;SDS011;54027;50.786;7.058;2023-03-12T01:43:44;6.75;;;3.83;;
67108;SDS011;54027;50.786;7.058;2023-03-12T01:49:04;9.80;;;3.45;;
67108;SDS011;54027;50.786;7.058;2023-03-12T01:51:34;5.70;;;3.20;;
67108;SDS011;54027;50.786;7.058;2023-03-12T01:54:04;10.88;;;4.90;;
67108;SDS011;54027;50.786;7.058;2023-03-12T01:56:37;7.25;;;3.50;;
67108;SDS011;54027;50.786;7.058;2023-03-12T01:59:08;4.43;;;2.95;;
67108;SDS011;54027;50.786;7.058;2023-03-12T02:01:38;6.57;;;3.55;;
67108;SDS011;54027;50.786;7.058;2023-03-12T02:04:05;6.15;;;3.15;;
67108;SDS011;54027;50.786;7.058;2023-03-12T02:06:36;5.45;;;3.33;;
67108;SDS011;54027;50.786;7.058;2023-03-12T02:09:07;8.13;;;3.40;;
67108;SDS011;54027;50.786;7.058;2023-03-12T02:11:33;5.93;;;3.20;;
67108;SDS011;54027;50.786;7.058;2023-03-12T02:14:00;8.35;;;3.35;;
67108;SDS011;54027;50.786;7.058;2023-03-12T02:16:26;5.03;;;3.13;;
67108;SDS011;54027;50.786;7.058;2023-03-12T02:18:52;7.20;;;2.95;;
67108;SDS011;54027;50.786;7.058;2023-03-12T02:21:21;4.45;;;2.92;;
67108;SDS011;54027;50.786;7.058;2023-03-12T02:26:32;5.03;;;3.00;;
67108;SDS011;54027;50.786;7.058;2023-03-12T02:29:00;7.60;;;3.33;;
67108;SDS011;54027;50.786;7.058;2023-03-12T02:31:26;4.78;;;3.00;;
67108;SDS011;54027;50.786;7.058;2023-03-12T02:33:56;5.57;;;3.20;;
67108;SDS011;54027;50.786;7.058;2023-03-12T02:36:24;9.93;;;2.70;;
67108;SDS011;54027;50.786;7.058;2023-03-12T02:38:50;4.43;;;2.70;;
67108;SDS011;54027;50.786;7.058;2023-03-12T02:41:19;5.10;;;3.35;;
67108;SDS011;54027;50.786;7.058;2023-03-12T02:43:48;5.13;;;2.80;;
67108;SDS011;54027;50.786;7.058;2023-03-12T02:46:21;7.55;;;3.28;;
67108;SDS011;54027;50.786;7.058;2023-03-12T02:48:46;7.95;;;3.40;;
67108;SDS011;54027;50.786;7.058;2023-03-12T02:51:12;9.00;;;3.50;;
67108;SDS011;54027;50.786;7.058;2023-03-12T02:53:38;7.85;;;3.38;;
67108;SDS011;54027;50.786;7.058;2023-03-12T02:56:04;9.18;;;3.00;;
67108;SDS011;54027;50.786;7.058;2023-03-12T02:58:29;6.68;;;2.72;;
67108;SDS011;54027;50.786;7.058;2023-03-12T03:00:54;9.57;;;2.75;;
67108;SDS011;54027;50.786;7.058;2023-03-12T03:03:20;15.75;;;3.25;;
67108;SDS011;54027;50.786;7.058;2023-03-12T03:05:45;4.53;;;2.40;;
67108;SDS011;54027;50.786;7.058;2023-03-12T03:08:11;7.63;;;2.88;;
67108;SDS011;54027;50.786;7.058;2023-03-12T03:10:36;5.60;;;3.03;;
67108;SDS011;54027;50.786;7.058;2023-03-12T03:13:01;5.22;;;2.65;;
67108;SDS011;54027;50.786;7.058;2023-03-12T03:15:27;7.07;;;2.40;;
67108;SDS011;54027;50.786;7.058;2023-03-12T03:17:52;4.68;;;2.72;;
67108;SDS011;54027;50.786;7.058;2023-03-12T03:20:18;5.13;;;2.70;;
67108;SDS011;54027;50.786;7.058;2023-03-12T03:22:44;7.38;;;2.88;;
67108;SDS011;54027;50.786;7.058;2023-03-12T03:25:09;11.15;;;2.78;;
67108;SDS011;54027;50.786;7.058;2023-03-12T03:27:35;5.00;;;2.70;;
67108;SDS011;54027;50.786;7.058;2023-03-12T03:30:00;5.85;;;2.60;;
67108;SDS011;54027;50.786;7.058;2023-03-12T03:32:27;6.78;;;2.70;;
67108;SDS011;54027;50.786;7.058;2023-03-12T03:34:52;7.18;;;2.05;;
67108;SDS011;54027;50.786;7.058;2023-03-12T03:37:17;5.82;;;2.78;;
67108;SDS011;54027;50.786;7.058;2023-03-12T03:39:43;7.25;;;2.72;;
67108;SDS011;54027;50.786;7.058;2023-03-12T03:42:08;6.82;;;2.85;;
67108;SDS011;54027;50.786;7.058;2023-03-12T03:44:34;5.18;;;2.55;;
67108;SDS011;54027;50.786;7.058;2023-03-12T03:46:59;8.80;;;2.75;;
67108;SDS011;54027;50.786;7.058;2023-03-12T03:49:25;6.43;;;2.85;;
67108;SDS011;54027;50.786;7.058;2023-03-12T03:51:50;5.97;;;2.17;;
67108;SDS011;54027;50.786;7.058;2023-03-12T03:54:16;5.35;;;2.45;;
67108;SDS011;54027;50.786;7.058;2023-03-12T03:56:42;6.65;;;2.53;;
67108;SDS011;54027;50.786;7.058;2023-03-12T03:59:07;5.05;;;2.08;;
67108;SDS011;54027;50.786;7.058;2023-03-12T04:01:33;7.22;;;2.40;;
67108;SDS011;54027;50.786;7.058;2023-03-12T04:03:58;6.93;;;2.47;;
67108;SDS011;54027;50.786;7.058;2023-03-12T04:06:24;7.32;;;2.60;;
67108;SDS011;54027;50.786;7.058;2023-03-12T04:08:49;7.40;;;2.25;;
67108;SDS011;54027;50.786;7.058;2023-03-12T04:11:15;6.22;;;2.42;;
67108;SDS011;54027;50.786;7.058;2023-03-12T04:13:43;6.07;;;2.63;;
67108;SDS011;54027;50.786;7.058;2023-03-12T04:16:09;5.10;;;2.22;;
67108;SDS011;54027;50.786;7.058;2023-03-12T04:18:35;9.75;;;2.70;;
67108;SDS011;54027;50.786;7.058;2023-03-12T04:21:02;6.88;;;2.20;;
67108;SDS011;54027;50.786;7.058;2023-03-12T04:23:28;5.22;;;2.70;;
67108;SDS011;54027;50.786;7.058;2023-03-12T04:25:53;3.67;;;2.13;;
67108;SDS011;54027;50.786;7.058;2023-03-12T04:28:19;13.07;;;3.80;;
67108;SDS011;54027;50.786;7.058;2023-03-12T04:30:44;4.63;;;2.08;;
67108;SDS011;54027;50.786;7.058;2023-03-12T04:33:10;6.30;;;2.65;;
67108;SDS011;54027;50.786;7.058;2023-03-12T04:35:35;7.53;;;2.25;;
67108;SDS011;54027;50.786;7.058;2023-03-12T04:38:01;4.38;;;2.10;;
67108;SDS011;54027;50.786;7.058;2023-03-12T04:40:27;6.35;;;2.42;;
67108;SDS011;54027;50.786;7.058;2023-03-12T04:42:52;4.95;;;2.35;;
67108;SDS011;54027;50.786;7.058;2023-03-12T04:45:18;6.68;;;2.45;;
67108;SDS011;54027;50.786;7.058;2023-03-12T04:47:43;6.75;;;2.22;;
67108;SDS011;54027;50.786;7.058;2023-03-12T04:50:09;7.68;;;3.05;;
67108;SDS011;54027;50.786;7.058;2023-03-12T04:52:35;6.22;;;2.13;;
67108;SDS011;54027;50.786;7.058;2023-03-12T04:55:01;7.55;;;2.17;;
67108;SDS011;54027;50.786;7.058;2023-03-12T04:57:27;6.32;;;2.25;;
67108;SDS011;54027;50.786;7.058;2023-03-12T04:59:52;5.55;;;2.60;;
67108;SDS011;54027;50.786;7.058;2023-03-12T05:02:18;4.45;;;2.28;;
67108;SDS011;54027;50.786;7.058;2023-03-12T05:04:43;5.13;;;2.97;;
67108;SDS011;54027;50.786;7.058;2023-03-12T05:07:08;8.35;;;2.60;;
67108;SDS011;54027;50.786;7.058;2023-03-12T05:09:34;6.28;;;2.78;;
67108;SDS011;54027;50.786;7.058;2023-03-12T05:11:59;7.30;;;2.80;;
67108;SDS011;54027;50.786;7.058;2023-03-12T05:14:25;8.63;;;2.50;;
67108;SDS011;54027;50.786;7.058;2023-03-12T05:16:50;7.43;;;2.95;;
67108;SDS011;54027;50.786;7.058;2023-03-12T05:19:16;7.03;;;2.83;;
67108;SDS011;54027;50.786;7.058;2023-03-12T05:21:41;5.25;;;2.67;;
67108;SDS011;54027;50.786;7.058;2023-03-12T05:24:07;5.53;;;2.80;;
67108;SDS011;54027;50.786;7.058;2023-03-12T05:26:34;5.72;;;2.95;;
67108;SDS011;54027;50.786;7.058;2023-03-12T05:29:00;7.78;;;2.60;;
67108;SDS011;54027;50.786;7.058;2023-03-12T05:31:26;6.03;;;3.15;;
67108;SDS011;54027;50.786;7.058;2023-03-12T05:33:57;7.70;;;2.92;;
67108;SDS011;54027;50.786;7.058;2023-03-12T05:36:23;13.30;;;2.88;;
67108;SDS011;54027;50.786;7.058;2023-03-12T05:38:48;8.15;;;2.40;;
67108;SDS011;54027;50.786;7.058;2023-03-12T05:41:21;7.05;;;2.90;;
67108;SDS011;54027;50.786;7.058;2023-03-12T05:43:52;8.15;;;3.53;;
67108;SDS011;54027;50.786;7.058;2023-03-12T05:46:20;9.43;;;3.22;;
67108;SDS011;54027;50.786;7.058;2023-03-12T05:48:46;7.25;;;2.90;;
67108;SDS011;54027;50.786;7.058;2023-03-12T05:51:11;6.57;;;2.72;;
67108;SDS011;54027;50.786;7.058;2023-03-12T05:53:37;5.72;;;2.83;;
67108;SDS011;54027;50.786;7.058;2023-03-12T05:56:03;11.38;;;3.35;;
67108;SDS011;54027;50.786;7.058;2023-03-12T05:58:30;19.83;;;5.43;;
67108;SDS011;54027;50.786;7.058;2023-03-12T06:00:56;7.75;;;2.80;;
67108;SDS011;54027;50.786;7.058;2023-03-12T06:03:21;8.18;;;3.22;;
67108;SDS011;54027;50.786;7.058;2023-03-12T06:05:47;6.18;;;3.10;;
67108;SDS011;54027;50.786;7.058;2023-03-12T06:08:12;5.88;;;3.25;;
67108;SDS011;54027;50.786;7.058;2023-03-12T06:10:38;7.78;;;3.20;;
67108;SDS011;54027;50.786;7.058;2023-03-12T06:13:04;6.95;;;3.05;;
67108;SDS011;54027;50.786;7.058;2023-03-12T06:15:29;9.20;;;3.03;;
67108;SDS011;54027;50.786;7.058;2023-03-12T06:17:55;5.25;;;3.35;;
67108;SDS011;54027;50.786;7.058;2023-03-12T06:20:21;6.65;;;2.80;;
67108;SDS011;54027;50.786;7.058;2023-03-12T06:22:46;10.27;;;3.83;;
67108;SDS011;54027;50.786;7.058;2023-03-12T06:25:12;9.48;;;3.30;;
67108;SDS011;54027;50.786;7.058;2023-03-12T06:27:37;6.85;;;3.13;;
67108;SDS011;54027;50.786;7.058;2023-03-12T06:30:03;6.43;;;3.90;;
67108;SDS011;54027;50.786;7.058;2023-03-12T06:32:29;11.45;;;2.83;;
67108;SDS011;54027;50.786;7.058;2023-03-12T06:34:55;4.32;;;2.70;;
67108;SDS011;54027;50.786;7.058;2023-03-12T06:37:20;7.32;;;2.63;;
67108;SDS011;54027;50.786;7.058;2023-03-12T06:39:46;6.47;;;2.72;;
67108;SDS011;54027;50.786;7.058;2023-03-12T06:42:11;6.72;;;3.30;;
67108;SDS011;54027;50.786;7.058;2023-03-12T06:44:38;6.18;;;3.25;;
67108;SDS011;54027;50.786;7.058;2023-03-12T06:47:04;4.90;;;2.35;;
67108;SDS011;54027;50.786;7.058;2023-03-12T06:49:29;8.68;;;2.53;;
67108;SDS011;54027;50.786;7.058;2023-03-12T06:51:57;9.57;;;2.97;;
67108;SDS011;54027;50.786;7.058;2023-03-12T06:54:22;13.73;;;3.28;;
67108;SDS011;54027;50.786;7.058;2023-03-12T06:56:48;8.00;;;3.30;;
67108;SDS011;54027;50.786;7.058;2023-03-12T06:59:13;8.05;;;3.10;;
67108;SDS011;54027;50.786;7.058;2023-03-12T07:01:39;11.18;;;3.13;;
67108;SDS011;54027;50.786;7.058;2023-03-12T07:04:04;10.13;;;2.80;;
67108;SDS011;54027;50.786;7.058;2023-03-12T07:06:30;7.95;;;3.08;;
67108;SDS011;54027;50.786;7.058;2023-03-12T07:08:55;11.32;;;4.85;;
67108;SDS011;54027;50.786;7.058;2023-03-12T07:11:20;12.52;;;3.17;;
67108;SDS011;54027;50.786;7.058;2023-03-12T07:13:46;7.75;;;2.75;;
67108;SDS011;54027;50.786;7.058;2023-03-12T07:16:11;5.82;;;3.22;;
67108;SDS011;54027;50.786;7.058;2023-03-12T07:18:37;11.27;;;2.92;;
67108;SDS011;54027;50.786;7.058;2023-03-12T07:21:02;5.57;;;2.60;;
67108;SDS011;54027;50.786;7.058;2023-03-12T07:23:28;8.52;;;2.80;;
67108;SDS011;54027;50.786;7.058;2023-03-12T07:25:54;7.95;;;2.60;;
67108;SDS011;54027;50.786;7.058;2023-03-12T07:28:19;7.22;;;3.63;;
67108;SDS011;54027;50.786;7.058;2023-03-12T07:30:45;10.23;;;3.30;;
67108;SDS011;54027;50.786;7.058;2023-03-12T07:33:15;6.65;;;2.72;;
67108;SDS011;54027;50.786;7.058;2023-03-12T07:35:42;10.23;;;3.03;;
67108;SDS011;54027;50.786;7.058;2023-03-12T07:38:10;7.50;;;2.75;;
67108;SDS011;54027;50.786;7.058;2023-03-12T07:40:35;11.07;;;3.05;;
67108;SDS011;54027;50.786;7.058;2023-03-12T07:43:01;7.18;;;3.20;;
67108;SDS011;54027;50.786;7.058;2023-03-12T07:45:27;8.27;;;3.63;;
67108;SDS011;54027;50.786;7.058;2023-03-12T07:47:53;8.20;;;3.03;;
67108;SDS011;54027;50.786;7.058;2023-03-12T07:50:18;5.28;;;2.72;;
67108;SDS011;54027;50.786;7.058;2023-03-12T07:52:44;5.90;;;2.90;;
67108;SDS011;54027;50.786;7.058;2023-03-12T07:55:10;8.50;;;3.08;;
67108;SDS011;54027;50.786;7.058;2023-03-12T07:57:36;8.13;;;2.78;;
67108;SDS011;54027;50.786;7.058;2023-03-12T08:00:02;8.98;;;3.90;;
67108;SDS011;54027;50.786;7.058;2023-03-12T08:02:31;4.28;;;3.13;;
67108;SDS011;54027;50.786;7.058;2023-03-12T08:04:56;7.40;;;3.33;;
67108;SDS011;54027;50.786;7.058;2023-03-12T08:07:22;8.30;;;3.67;;
67108;SDS011;54027;50.786;7.058;2023-03-12T08:09:47;7.97;;;3.45;;
67108;SDS011;54027;50.786;7.058;2023-03-12T08:12:13;7.85;;;4.15;;
67108;SDS011;54027;50.786;7.058;2023-03-12T08:14:39;6.22;;;3.00;;
67108;SDS011;54027;50.786;7.058;2023-03-12T08:17:04;9.35;;;3.70;;
67108;SDS011;54027;50.786;7.058;2023-03-12T08:19:29;6.30;;;3.00;;
67108;SDS011;54027;50.786;7.058;2023-03-12T08:21:55;8.38;;;3.90;;
67108;SDS011;54027;50.786;7.058;2023-03-12T08:24:22;9.25;;;3.03;;
67108;SDS011;54027;50.786;7.058;2023-03-12T08:26:48;12.57;;;5.40;;
67108;SDS011;54027;50.786;7.058;2023-03-12T08:29:13;7.35;;;3.33;;
67108;SDS011;54027;50.786;7.058;2023-03-12T08:31:39;5.97;;;3.20;;
67108;SDS011;54027;50.786;7.058;2023-03-12T08:34:05;7.38;;;3.20;;
67108;SDS011;54027;50.786;7.058;2023-03-12T08:36:30;8.73;;;4.32;;
67108;SDS011;54027;50.786;7.058;2023-03-12T08:38:56;10.65;;;4.00;;
67108;SDS011;54027;50.786;7.058;2023-03-12T08:41:21;7.40;;;4.28;;
67108;SDS011;54027;50.786;7.058;2023-03-12T08:43:46;6.85;;;3.92;;
67108;SDS011;54027;50.786;7.058;2023-03-12T08:46:12;8.40;;;4.50;;
67108;SDS011;54027;50.786;7.058;2023-03-12T08:48:37;8.55;;;4.03;;
67108;SDS011;54027;50.786;7.058;2023-03-12T08:51:03;10.68;;;4.72;;
67108;SDS011;54027;50.786;7.058;2023-03-12T08:53:31;6.22;;;4.10;;
67108;SDS011;54027;50.786;7.058;2023-03-12T08:55:58;8.55;;;4.13;;
67108;SDS011;54027;50.786;7.058;2023-03-12T08:58:24;7.47;;;4.80;;
67108;SDS011;54027;50.786;7.058;2023-03-12T09:00:50;10.50;;;4.63;;
67108;SDS011;54027;50.786;7.058;2023-03-12T09:03:15;9.68;;;4.70;;
67108;SDS011;54027;50.786;7.058;2023-03-12T09:05:42;6.65;;;4.28;;
67108;SDS011;54027;50.786;7.058;2023-03-12T09:08:09;7.97;;;4.22;;
67108;SDS011;54027;50.786;7.058;2023-03-12T09:10:35;9.23;;;4.18;;
67108;SDS011;54027;50.786;7.058;2023-03-12T09:13:01;5.22;;;3.70;;
67108;SDS011;54027;50.786;7.058;2023-03-12T09:15:28;7.43;;;4.50;;
67108;SDS011;54027;50.786;7.058;2023-03-12T09:17:53;9.63;;;4.60;;
67108;SDS011;54027;50.786;7.058;2023-03-12T09:20:19;8.55;;;4.85;;
67108;SDS011;54027;50.786;7.058;2023-03-12T09:22:46;7.45;;;4.78;;
67108;SDS011;54027;50.786;7.058;2023-03-12T09:25:12;9.20;;;5.38;;
67108;SDS011;54027;50.786;7.058;2023-03-12T09:27:38;10.65;;;4.72;;
67108;SDS011;54027;50.786;7.058;2023-03-12T09:30:09;8.13;;;4.78;;
67108;SDS011;54027;50.786;7.058;2023-03-12T09:32:36;9.85;;;4.97;;
67108;SDS011;54027;50.786;7.058;2023-03-12T09:35:03;10.65;;;4.70;;
67108;SDS011;54027;50.786;7.058;2023-03-12T09:37:29;9.73;;;5.10;;
67108;SDS011;54027;50.786;7.058;2023-03-12T09:39:56;19.10;;;6.15;;
67108;SDS011;54027;50.786;7.058;2023-03-12T09:45:23;9.52;;;5.45;;
67108;SDS011;54027;50.786;7.058;2023-03-12T09:47:53;10.30;;;5.53;;
67108;SDS011;54027;50.786;7.058;2023-03-12T09:50:37;10.23;;;5.50;;
67108;SDS011;54027;50.786;7.058;2023-03-12T09:55:48;11.30;;;5.93;;
67108;SDS011;54027;50.786;7.058;2023-03-12T09:58:26;8.35;;;5.38;;
67108;SDS011;54027;50.786;7.058;2023-03-12T10:00:59;8.93;;;5.57;;
67108;SDS011;54027;50.786;7.058;2023-03-12T10:03:38;9.55;;;5.72;;
67108;SDS011;54027;50.786;7.058;2023-03-12T10:06:16;11.95;;;7.13;;
67108;SDS011;54027;50.786;7.058;2023-03-12T10:25:57;7.45;;;5.57;;
67108;SDS011;54027;50.786;7.058;2023-03-12T10:28:56;12.73;;;5.80;;
67108;SDS011;54027;50.786;7.058;2023-03-12T10:31:26;10.52;;;6.40;;
67108;SDS011;54027;50.786;7.058;2023-03-12T10:34:00;10.05;;;5.85;;
67108;SDS011;54027;50.786;7.058;2023-03-12T10:38:51;12.55;;;6.10;;
67108;SDS011;54027;50.786;7.058;2023-03-12T10:41:19;13.90;;;7.32;;
67108;SDS011;54027;50.786;7.058;2023-03-12T10:43:46;11.13;;;7.57;;
67108;SDS011;54027;50.786;7.058;2023-03-12T10:46:30;12.75;;;6.93;;
67108;SDS011;54027;50.786;7.058;2023-03-12T10:49:23;9.75;;;6.25;;
67108;SDS011;54027;50.786;7.058;2023-03-12T10:54:21;11.27;;;6.18;;
67108;SDS011;54027;50.786;7.058;2023-03-12T10:56:51;9.30;;;5.93;;
67108;SDS011;54027;50.786;7.058;2023-03-12T10:59:20;9.65;;;7.05;;
67108;SDS011;54027;50.786;7.058;2023-03-12T11:01:48;14.38;;;7.80;;
67108;SDS011;54027;50.786;7.058;2023-03-12T11:04:18;12.73;;;7.38;;
67108;SDS011;54027;50.786;7.058;2023-03-12T11:07:30;12.18;;;6.97;;
67108;SDS011;54027;50.786;7.058;2023-03-12T11:12:29;10.45;;;6.75;;
67108;SDS011;54027;50.786;7.058;2023-03-12T11:14:55;12.40;;;6.30;;
67108;SDS011;54027;50.786;7.058;2023-03-12T11:17:22;9.80;;;6.75;;
67108;SDS011;54027;50.786;7.058;2023-03-12T11:19:50;13.32;;;6.30;;
67108;SDS011;54027;50.786;7.058;2023-03-12T11:22:26;10.13;;;6.53;;
67108;SDS011;54027;50.786;7.058;2023-03-12T11:25:01;9.80;;;6.25;;
67108;SDS011;54027;50.786;7.058;2023-03-12T11:27:40;12.27;;;6.20;;
67108;SDS011;54027;50.786;7.058;2023-03-12T11:30:11;10.55;;;6.15;;
67108;SDS011;54027;50.786;7.058;2023-03-12T11:32:41;13.27;;;6.85;;
67108;SDS011;54027;50.786;7.058;2023-03-12T11:35:10;16.27;;;7.90;;
67108;SDS011;54027;50.786;7.058;2023-03-12T11:40:16;18.95;;;8.65;;
67108;SDS011;54027;50.786;7.058;2023-03-12T12:09:12;11.52;;;2.90;;
67108;SDS011;54027;50.786;7.058;2023-03-12T12:17:24;9.50;;;2.72;;
67108;SDS011;54027;50.786;7.058;2023-03-12T12:31:08;9.20;;;2.40;;
67108;SDS011;54027;50.786;7.058;2023-03-12T12:34:01;5.68;;;2.13;;
67108;SDS011;54027;50.786;7.058;2023-03-12T12:36:31;8.02;;;2.15;;
67108;SDS011;54027;50.786;7.058;2023-03-12T12:39:00;8.05;;;1.95;;
67108;SDS011;54027;50.786;7.058;2023-03-12T12:41:49;6.60;;;2.17;;
67108;SDS011;54027;50.786;7.058;2023-03-12T12:44:18;8.77;;;1.75;;
67108;SDS011;54027;50.786;7.058;2023-03-12T12:46:51;4.93;;;1.67;;
67108;SDS011;54027;50.786;7.058;2023-03-12T12:49:24;3.75;;;1.40;;
67108;SDS011;54027;50.786;7.058;2023-03-12T12:51:53;5.88;;;1.55;;
67108;SDS011;54027;50.786;7.058;2023-03-12T13:02:36;4.28;;;1.38;;
67108;SDS011;54027;50.786;7.058;2023-03-12T13:05:15;6.47;;;1.60;;
67108;SDS011;54027;50.786;7.058;2023-03-12T13:07:43;7.63;;;1.70;;
67108;SDS011;54027;50.786;7.058;2023-03-12T13:10:36;9.48;;;2.45;;
67108;SDS011;54027;50.786;7.058;2023-03-12T13:12:56;10.02;;;2.63;;
67108;SDS011;54027;50.786;7.058;2023-03-12T13:20:44;10.20;;;2.65;;
67108;SDS011;54027;50.786;7.058;2023-03-12T13:28:32;9.23;;;1.95;;
67108;SDS011;54027;50.786;7.058;2023-03-12T13:31:32;14.63;;;5.28;;
67108;SDS011;54027;50.786;7.058;2023-03-12T13:33:46;10.43;;;2.53;;
67108;SDS011;54027;50.786;7.058;2023-03-12T13:41:38;7.78;;;2.67;;
67108;SDS011;54027;50.786;7.058;2023-03-12T13:49:39;8.60;;;2.63;;
67108;SDS011;54027;50.786;7.058;2023-03-12T13:55:18;13.52;;;3.15;;
67108;SDS011;54027;50.786;7.058;2023-03-12T13:57:46;14.63;;;3.78;;
67108;SDS011;54027;50.786;7.058;2023-03-12T14:00:36;10.23;;;2.88;;
67108;SDS011;54027;50.786;7.058;2023-03-12T14:03:17;11.63;;;2.97;;
67108;SDS011;54027;50.786;7.058;2023-03-12T14:11:15;10.32;;;2.75;;
67108;SDS011;54027;50.786;7.058;2023-03-12T14:19:13;6.30;;;2.22;;
67108;SDS011;54027;50.786;7.058;2023-03-12T14:21:42;12.88;;;2.97;;
67108;SDS011;54027;50.786;7.058;2023-03-12T14:26:44;11.85;;;2.45;;
67108;SDS011;54027;50.786;7.058;2023-03-12T14:31:42;12.23;;;3.30;;
67108;SDS011;54027;50.786;7.058;2023-03-12T14:36:37;8.32;;;2.42;;
67108;SDS011;54027;50.786;7.058;2023-03-12T14:41:53;14.38;;;3.13;;
67108;SDS011;54027;50.786;7.058;2023-03-12T14:44:25;12.05;;;2.95;;
67108;SDS011;54027;50.786;7.058;2023-03-12T14:46:55;13.20;;;4.28;;
67108;SDS011;54027;50.786;7.058;2023-03-12T14:49:24;11.80;;;3.70;;
67108;SDS011;54027;50.786;7.058;2023-03-12T14:51:51;13.82;;;4.13;;
67108;SDS011;54027;50.786;7.058;2023-03-12T14:54:18;13.75;;;4.80;;
67108;SDS011;54027;50.786;7.058;2023-03-12T14:56:47;26.45;;;13.00;;
67108;SDS011;54027;50.786;7.058;2023-03-12T14:59:20;25.60;;;13.25;;
67108;SDS011;54027;50.786;7.058;2023-03-12T15:01:47;21.10;;;9.45;;
67108;SDS011;54027;50.786;7.058;2023-03-12T15:04:15;13.40;;;6.20;;
67108;SDS011;54027;50.786;7.058;2023-03-12T15:06:44;42.15;;;25.40;;
67108;SDS011;54027;50.786;7.058;2023-03-12T15:09:19;24.48;;;12.85;;
67108;SDS011;54027;50.786;7.058;2023-03-12T15:12:02;15.82;;;5.43;;
67108;SDS011;54027;50.786;7.058;2023-03-12T15:14:37;15.52;;;6.72;;
67108;SDS011;54027;50.786;7.058;2023-03-12T15:17:05;13.85;;;4.65;;
67108;SDS011;54027;50.786;7.058;2023-03-12T15:19:32;21.17;;;11.60;;
67108;SDS011;54027;50.786;7.058;2023-03-12T15:22:00;12.02;;;4.35;;
67108;SDS011;54027;50.786;7.058;2023-03-12T15:24:29;9.50;;;2.80;;
67108;SDS011;54027;50.786;7.058;2023-03-12T15:27:17;14.55;;;4.60;;
67108;SDS011;54027;50.786;7.058;2023-03-12T15:29:49;30.00;;;12.05;;
67108;SDS011;54027;50.786;7.058;2023-03-12T15:32:16;16.38;;;3.53;;
67108;SDS011;54027;50.786;7.058;2023-03-12T15:34:46;16.27;;;3.55;;
67108;SDS011;54027;50.786;7.058;2023-03-12T15:39:53;15.15;;;4.35;;
67108;SDS011;54027;50.786;7.058;2023-03-12T15:42:21;18.63;;;5.22;;
67108;SDS011;54027;50.786;7.058;2023-03-12T15:44:53;14.35;;;4.90;;
67108;SDS011;54027;50.786;7.058;2023-03-12T15:47:21;18.80;;;7.00;;
67108;SDS011;54027;50.786;7.058;2023-03-12T15:50:06;18.87;;;7.13;;
67108;SDS011;54027;50.786;7.058;2023-03-12T15:52:56;17.20;;;4.15;;
67108;SDS011;54027;50.786;7.058;2023-03-12T15:55:23;16.35;;;4.10;;
67108;SDS011;54027;50.786;7.058;2023-03-12T15:57:54;13.75;;;3.40;;
67108;SDS011;54027;50.786;7.058;2023-03-12T16:00:21;15.55;;;3.80;;
67108;SDS011;54027;50.786;7.058;2023-03-12T16:02:57;19.77;;;4.10;;
67108;SDS011;54027;50.786;7.058;2023-03-12T16:05:56;17.60;;;3.83;;
67108;SDS011;54027;50.786;7.058;2023-03-12T16:08:16;18.88;;;4.25;;
67108;SDS011;54027;50.786;7.058;2023-03-12T16:13:16;16.33;;;3.85;;
67108;SDS011;54027;50.786;7.058;2023-03-12T16:15:44;18.48;;;3.47;;
67108;SDS011;54027;50.786;7.058;2023-03-12T16:18:10;18.25;;;3.72;;
67108;SDS011;54027;50.786;7.058;2023-03-12T16:20:40;17.70;;;5.82;;
67108;SDS011;54027;50.786;7.058;2023-03-12T16:23:05;29.33;;;7.95;;
67108;SDS011;54027;50.786;7.058;2023-03-12T16:25:31;53.72;;;22.75;;
67108;SDS011;54027;50.786;7.058;2023-03-12T16:27:59;21.13;;;5.68;;
67108;SDS011;54027;50.786;7.058;2023-03-12T16:30:31;20.38;;;5.57;;
67108;SDS011;54027;50.786;7.058;2023-03-12T16:32:59;19.45;;;4.32;;
67108;SDS011;54027;50.786;7.058;2023-03-12T16:35:26;25.77;;;5.20;;
67108;SDS011;54027;50.786;7.058;2023-03-12T16:37:52;17.73;;;4.75;;
67108;SDS011;54027;50.786;7.058;2023-03-12T16:40:18;20.45;;;5.53;;
67108;SDS011;54027;50.786;7.058;2023-03-12T16:42:46;23.70;;;4.32;;
67108;SDS011;54027;50.786;7.058;2023-03-12T16:45:14;19.60;;;4.13;;
67108;SDS011;54027;50.786;7.058;2023-03-12T16:47:41;22.33;;;5.10;;
67108;SDS011;54027;50.786;7.058;2023-03-12T16:50:09;24.65;;;4.72;;
67108;SDS011;54027;50.786;7.058;2023-03-12T16:52:38;21.63;;;5.18;;
67108;SDS011;54027;50.786;7.058;2023-03-12T16:55:04;24.13;;;4.75;;
67108;SDS011;54027;50.786;7.058;2023-03-12T16:57:33;23.17;;;5.18;;
67108;SDS011;54027;50.786;7.058;2023-03-12T17:00:02;20.15;;;5.05;;
67108;SDS011;54027;50.786;7.058;2023-03-12T17:02:32;24.52;;;5.45;;
67108;SDS011;54027;50.786;7.058;2023-03-12T17:04:59;18.42;;;5.28;;
67108;SDS011;54027;50.786;7.058;2023-03-12T17:07:25;20.13;;;4.28;;
67108;SDS011;54027;50.786;7.058;2023-03-12T17:09:50;25.80;;;5.82;;